Latest Coastal Weather Observations for Truscott

IDD60701

Issued at 7:51 pm CST Monday 21 August 2017 (issued every 10 minutes, with the page automatically refreshed every 10 minutes)

About coastal observations | Map of coastal stations | Coastal observations for NT | Marine services | Other Formats
Station Details ID: 001020 Name: TRUSCOTT Lat: -14.09 Lon: 126.39 Height: 51.0 m
Data from the previous 72 hours. | See also: Recent months at Truscott
Date/Time
CST
Temp
°C
Wind Pressure Rain since
9am
mm
Weather Cloud Vis
km
Sea
Height
m
Swell
Dir  Spd
kts
Gust
kts
hPa Trend Height
m
Period
s
Dir
21/07:30pm 25.9 NNW 4 5 1011.4 - 0.0 - - 10 - - - -
21/07:00pm 26.3 N 5 7 1011.0 - 0.0 - - 10 - - - -
21/06:30pm 27.2 N 6 9 1010.8 - 0.0 - - 10 - - - -
21/06:00pm 27.6 N 8 11 1010.6 - 0.0 - - 10 - - - -
21/05:30pm 28.3 N 8 12 1010.4 - 0.0 - - 10 - - - -
21/05:00pm 29.3 NNW 7 12 1010.3 - 0.0 - - 10 - - - -
21/04:30pm 29.0 N 9 13 1010.2 - 0.0 - - 10 - - - -
21/04:00pm 29.3 N 10 18 1010.1 - 0.0 - - 10 - - - -
21/03:30pm 29.7 N 11 16 1010.3 - 0.0 - - 10 - - - -
21/03:00pm 30.8 N 10 15 1010.5 - 0.0 - - 10 - - - -
21/02:30pm 30.9 NNW 12 18 1010.9 - 0.0 - - 10 - - - -
21/02:00pm 32.0 NNW 10 14 1011.1 - 0.0 - - 10 - - - -
21/01:30pm 31.6 N 10 14 1011.6 - 0.0 - - 10 - - - -
21/01:00pm 31.8 N 9 12 1012.1 - 0.0 - - 10 - - - -
21/12:30pm 31.8 N 7 14 1012.3 - 0.0 - - 10 - - - -
21/12:00pm 31.3 NW 6 11 1012.7 - 0.0 - - 10 - - - -
21/11:30am 31.8 S 4 6 1013.0 - 0.0 - - 10 - - - -
21/11:00am 30.4 WSW 4 6 1013.3 - 0.0 - - 10 - - - -
21/10:30am 29.6 WSW 4 6 1013.3 - 0.0 - - 10 - - - -
21/10:00am 28.8 S 2 5 1013.3 - 0.0 - - 10 - - - -
21/09:30am 27.3 SSE 1 3 1013.2 - 0.0 - - 10 - - - -
21/09:00am 25.7 SE 3 4 1013.0 - 0.0 - - 10 - - - -
21/08:30am 24.6 ESE 1 3 1012.9 - 0.0 - - 10 - - - -
21/08:00am 22.2 CALM 0 0 1012.6 - 0.0 - - 10 - - - -
21/07:30am 20.9 CALM 0 2 1012.4 - 0.0 - - 10 - - - -
21/07:00am 20.5 SE 3 3 1011.9 - 0.0 - - 10 - - - -
21/06:30am 21.2 CALM 0 0 1011.6 - 0.0 - - 10 - - - -
21/06:00am 21.1 ESE 1 4 1011.3 - 0.0 - - 10 - - - -
21/05:30am 21.0 CALM 0 0 1011.2 - 0.0 - - 10 - - - -
21/05:00am 21.6 CALM 0 0 1011.0 - 0.0 - - 10 - - - -
21/04:30am 21.5 CALM 0 0 1011.1 - 0.0 - - 10 - - - -
21/04:00am 21.9 SSW 4 4 1011.0 - 0.0 - - 10 - - - -
21/03:30am 22.4 WSW 2 4 1011.0 - 0.0 - - 10 - - - -
21/03:00am 22.4 SW 3 4 1011.4 - 0.0 - - 10 - - - -
21/02:30am 22.2 CALM 0 0 1011.5 - 0.0 - - 10 - - - -
21/02:00am 22.0 CALM 0 0 1011.8 - 0.0 - - 10 - - - -
21/01:30am 22.4 CALM 0 0 1012.0 - 0.0 - - 10 - - - -
21/01:00am 22.8 CALM 0 0 1012.3 - 0.0 - - 10 - - - -
21/12:30am 22.4 CALM 0 0 1012.4 - 0.0 - - 10 - - - -
21/12:00am 22.9 CALM 0 0 1012.5 - 0.0 - - 10 - - - -
 
Date/Time
CST
Temp
°C
Wind Pressure Rain since
9am
mm
Weather Cloud Vis
km
Sea
Height
m
Swell
Dir  Spd
kts
Gust
kts
hPa Trend Height
m
Period
s
Dir
20/11:30pm 23.0 CALM 0 0 1012.6 - 0.0 - - 10 - - - -
20/11:00pm 23.0 CALM 0 0 1012.7 - 0.0 - - 10 - - - -
20/10:30pm 23.5 CALM 0 0 1012.8 - 0.0 - - 10 - - - -
20/10:00pm 23.8 CALM 0 3 1012.8 - 0.0 - - 10 - - - -
20/09:30pm 23.9 NE 3 3 1012.7 - 0.0 - - 10 - - - -
20/09:00pm 24.2 CALM 0 0 1012.5 - 0.0 - - 10 - - - -
20/08:30pm 24.8 CALM 0 0 1012.1 - 0.0 - - 10 - - - -
20/08:00pm 25.7 NNW 2 3 1011.6 - 0.0 - - 10 - - - -
20/07:30pm 26.2 NNW 3 4 1011.3 - 0.0 - - 10 - - - -
20/07:00pm 27.5 NNW 4 6 1011.1 - 0.0 - - 10 - - - -
20/06:30pm 28.6 N 5 9 1010.9 - 0.0 - - 10 - - - -
20/06:00pm 29.1 N 7 10 1010.6 - 0.0 - - 10 - - - -
20/05:30pm 29.7 N 8 12 1010.4 - 0.0 - - 10 - - - -
20/05:00pm 30.2 N 8 11 1010.3 - 0.0 - - 10 - - - -
20/04:30pm 31.1 N 8 12 1010.2 - 0.0 - - 10 - - - -
20/04:00pm 31.3 N 8 12 1010.3 - 0.0 - - 10 - - - -
20/03:30pm 32.1 N 10 14 1010.6 - 0.0 - - 10 - - - -
20/03:00pm 32.0 N 10 15 1010.8 - 0.0 - - 10 - - - -
20/02:30pm 33.5 N 9 15 1011.0 - 0.0 - - 10 - - - -
20/02:00pm 35.0 NE 8 14 1011.6 - 0.0 - - 10 - - - -
20/01:30pm 33.7 NNE 9 13 1012.2 - 0.0 - - 10 - - - -
20/01:00pm 33.8 ENE 8 13 1012.7 - 0.0 - - 10 - - - -
20/12:30pm 33.1 ENE 7 11 1013.1 - 0.0 - - 10 - - - -
20/12:00pm 33.1 ENE 7 11 1013.5 - 0.0 - - 10 - - - -
20/11:30am 32.7 ESE 6 13 1013.7 - 0.0 - - 10 - - - -
20/11:00am 32.4 E 7 12 1014.1 - 0.0 - - 10 - - - -
20/10:30am 31.9 SE 4 8 1014.1 - 0.0 - - 10 - - - -
20/10:00am 30.6 E 3 6 1014.0 - 0.0 - - 10 - - - -
20/09:30am 28.3 S 3 5 1014.2 - 0.0 - - 10 - - - -
20/09:00am 26.6 SSW 5 7 1013.8 - 0.0 - - 10 - - - -
20/08:30am 25.6 SSW 5 7 1013.6 - 0.0 - - 10 - - - -
20/08:00am 24.2 S 6 7 1013.5 - 0.0 - - 10 - - - -
20/07:30am 23.1 SSW 5 5 1013.3 - 0.0 - - 10 - - - -
20/07:00am 23.1 S 5 6 1013.0 - 0.0 - - 10 - - - -
20/06:30am 23.4 S 5 7 1012.8 - 0.0 - - 10 - - - -
20/06:00am 23.8 SSW 6 7 1012.5 - 0.0 - - 10 - - - -
20/05:30am 23.8 SSW 6 8 1012.3 - 0.0 - - 10 - - - -
20/05:00am 23.7 SSW 5 7 1012.3 - 0.0 - - 10 - - - -
20/04:30am 23.9 SSW 4 6 1012.4 - 0.0 - - 10 - - - -
20/04:00am 24.1 SW 6 7 1012.3 - 0.0 - - 10 - - - -
20/03:30am 24.0 SW 7 9 1012.4 - 0.0 - - 10 - - - -
20/03:00am 23.9 SW 6 7 1012.4 - 0.0 - - 10 - - - -
20/02:30am 24.1 SW 6 7 1012.5 - 0.0 - - 10 - - - -
20/02:00am 24.3 SW 6 8 1012.7 - 0.0 - - 10 - - - -
20/01:30am 24.5 SW 6 8 1012.9 - 0.0 - - 10 - - - -
20/01:00am 24.7 SW 6 8 1013.2 - 0.0 - - 10 - - - -
20/12:30am 24.8 SW 6 8 1013.4 - 0.0 - - 10 - - - -
20/12:00am 24.9 SW 5 6 1013.4 - 0.0 - - 10 - - - -
 
Date/Time
CST
Temp
°C
Wind Pressure Rain since
9am
mm
Weather Cloud Vis
km
Sea
Height
m
Swell
Dir  Spd
kts
Gust
kts
hPa Trend Height
m
Period
s
Dir
19/11:30pm 25.0 SW 4 6 1013.6 - 0.0 - - 10 - - - -
19/11:00pm 25.0 SW 4 5 1013.7 - 0.0 - - 10 - - - -
19/10:30pm 25.1 SW 2 6 1013.9 - 0.0 - - 10 - - - -
19/10:00pm 25.3 SW 4 5 1013.8 - 0.0 - - 10 - - - -
19/09:30pm 25.6 WSW 4 6 1013.6 - 0.0 - - 10 - - - -
19/09:00pm 25.3 WNW 3 5 1013.5 - 0.0 - - 10 - - - -
19/08:30pm 25.7 NW 4 6 1013.1 - 0.0 - - 10 - - - -
19/08:00pm 26.1 NNW 4 6 1012.8 - 0.0 - - 10 - - - -
19/07:30pm 26.2 NW 4 6 1012.3 - 0.0 - - 10 - - - -
19/07:00pm 27.3 N 5 6 1011.9 - 0.0 - - 10 - - - -
19/06:30pm 28.5 N 5 7 1011.5 - 0.0 - - 10 - - - -
19/06:00pm 28.9 NNW 6 9 1010.9 - 0.0 - - 10 - - - -
19/05:30pm 28.9 NNW 8 11 1010.7 - 0.0 - - 10 - - - -
19/05:00pm 29.3 NNW 7 10 1010.6 - 0.0 - - 10 - - - -
19/04:30pm 29.9 N 9 12 1010.8 - 0.0 - - 10 - - - -
19/04:00pm 30.1 NNW 8 12 1011.2 - 0.0 - - 10 - - - -
19/03:30pm 30.2 NNW 9 13 1011.5 - 0.0 - - 10 - - - -
19/03:00pm 30.4 N 9 12 1011.9 - 0.0 - - 10 - - - -
19/02:30pm 30.9 NNW 8 11 1012.2 - 0.0 - - 10 - - - -
19/02:00pm 30.8 N 8 12 1012.5 - 0.0 - - 10 - - - -
19/01:30pm 30.1 N 9 13 1013.1 - 0.0 - - 10 - - - -
19/01:00pm 30.3 N 9 13 1013.6 - 0.0 - - 10 - - - -
19/12:30pm 29.7 N 8 12 1013.9 - 0.0 - - 10 - - - -
19/12:00pm 29.4 NNW 8 11 1014.3 - 0.0 - - 10 - - - -
19/11:30am 31.2 NNW 4 6 1014.6 - 0.0 - - 10 - - - -
19/11:00am 30.8 SW 4 6 1014.9 - 0.0 - - 10 - - - -
19/10:30am 29.6 SSE 3 5 1015.2 - 0.0 - - 10 - - - -
19/10:00am 28.5 NNE 2 4 1015.3 - 0.0 - - 10 - - - -
19/09:30am 27.2 WSW 3 5 1015.0 - 0.0 - - 10 - - - -
19/09:00am 26.3 CALM 0 0 1014.9 - 0.0 - - 10 - - - -
19/08:30am 25.4 CALM 0 0 1014.7 - 0.0 - - 10 - - - -
19/08:00am 22.9 CALM 0 0 1014.4 - 0.0 - - 10 - - - -
19/07:30am 21.9 ENE 2 3 1014.1 - 0.0 - - 10 - - - -
19/07:00am 21.9 CALM 0 0 1013.7 - 0.0 - - 10 - - - -
19/06:30am 22.1 CALM 0 0 1013.2 - 0.0 - - 10 - - - -
19/06:00am 22.6 SSW 2 4 1012.7 - 0.0 - - 10 - - - -
19/05:30am 23.6 SSW 3 5 1012.5 - 0.0 - - 10 - - - -
19/05:00am 23.8 SSW 6 8 1012.2 - 0.0 - - 10 - - - -
19/04:30am 24.0 SW 7 10 1012.1 - 0.0 - - 10 - - - -
19/04:00am 24.0 SW 7 9 1012.3 - 0.0 - - 10 - - - -
19/03:30am 24.1 SW 7 9 1012.5 - 0.0 - - 10 - - - -
19/03:00am 24.3 SW 6 8 1012.8 - 0.0 - - 10 - - - -
19/02:30am 24.6 WSW 6 8 1013.0 - 0.0 - - 10 - - - -
19/02:00am 24.4 WSW 5 6 1013.2 - 0.0 - - 10 - - - -
19/01:30am 24.5 WSW 5 6 1013.4 - 0.0 - - 10 - - - -
19/01:00am 24.4 W 5 7 1013.4 - 0.0 - - 10 - - - -
19/12:30am 24.8 WSW 4 6 1013.8 - 0.0 - - 10 - - - -
19/12:00am 24.7 SW 4 5 1013.8 - 0.0 - - 10 - - - -
 
Date/Time
CST
Temp
°C
Wind Pressure Rain since
9am
mm
Weather Cloud Vis
km
Sea
Height
m
Swell
Dir  Spd
kts
Gust
kts
hPa Trend Height
m
Period
s
Dir
18/11:30pm 24.6 W 3 5 1013.8 - 0.0 - - 10 - - - -
18/11:00pm 24.7 WNW 4 5 1013.9 - 0.0 - - 10 - - - -
18/10:30pm 24.1 WNW 3 3 1014.0 - 0.0 - - 10 - - - -
18/10:00pm 24.3 CALM 0 0 1013.7 - 0.0 - - 10 - - - -
18/09:30pm 25.0 W 2 4 1013.5 - 0.0 - - 10 - - - -

Other Formats:

Comma delimited format used in spreadsheet applications
http://www.bom.gov.au/fwo/IDD60701/IDD60701.95101.axf

JavaScript Object Notation format (JSON) in row-major order
http://www.bom.gov.au/fwo/IDD60701/IDD60701.95101.json